Welcome to Des Moines Iowa Weather. I am an independent private personal weather station on the Northwest Side of Des Moines, Iowa. Just East of Windsor Heights and just West of Glendale . This site is also mobile friendly.

There are no active watches, warnings or advisories


Visit our other weather sites:

Historical Data

Weather Station Setup



Weather Underground History page Text

Daily Summary for April 4, 2017 Units:  English    Metric   Both
« Previous Day
Next Day »
Daily Weekly Monthly Yearly Custom
  High: Low: Average:
Temperature: 55.8 °F 46.8 °F 50.4 °F
Dew Point: 47.0 °F 44.0 °F 45.6 °F
Humidity: 95 % 67 % 84 %
Wind Speed: 9.0 mph 0.0 mph 2.4 mph
Wind Gust: 14.0 mph - -
Wind:- - South
Pressure: 29.89 in 29.59 in -
Precipitation: 0.01 in    
Historical Graphs
 
 
Tabular Data for April 4, 2017
Time Temperature Dew Point Pressure Wind Wind Speed Wind Gust Humidity Rainfall Rate (Hourly)
00:12 48.6 °F 47.0 °F 29.59 in Calm   4.0 mph 94 % 0.00 in
00:27 48.5 °F 47.0 °F 29.59 in NNW 2.0 mph 5.0 mph 95 % 0.00 in
00:42 48.4 °F 47.0 °F 29.60 in Calm   3.0 mph 94 % 0.00 in
00:57 48.2 °F 47.0 °F 29.61 in West 3.0 mph 5.0 mph 95 % 0.00 in
01:12 48.1 °F 47.0 °F 29.60 in Calm   5.0 mph 95 % 0.00 in
01:27 48.1 °F 47.0 °F 29.61 in NNW 2.0 mph 6.0 mph 95 % 0.00 in
01:42 48.0 °F 47.0 °F 29.61 in Calm   4.0 mph 95 % 0.00 in
01:57 48.1 °F 47.0 °F 29.60 in Calm   4.0 mph 95 % 0.00 in
02:12 48.1 °F 47.0 °F 29.60 in Calm   6.0 mph 95 % 0.00 in
02:27 48.0 °F 47.0 °F 29.59 in NNW 5.0 mph 6.0 mph 95 % 0.00 in
02:42 47.9 °F 47.0 °F 29.59 in Calm   4.0 mph 95 % 0.00 in
02:57 47.8 °F 47.0 °F 29.59 in Calm   5.0 mph 95 % 0.00 in
03:12 47.7 °F 46.0 °F 29.60 in Calm   4.0 mph 95 % 0.00 in
03:27 47.8 °F 47.0 °F 29.61 in NNW 3.0 mph 6.0 mph 95 % 0.00 in
03:42 47.8 °F 47.0 °F 29.61 in NNW 3.0 mph 10.0 mph 95 % 0.00 in
03:57 47.7 °F 46.0 °F 29.61 in NNW 4.0 mph 8.0 mph 95 % 0.00 in
04:12 47.7 °F 46.0 °F 29.61 in West 4.0 mph 9.0 mph 95 % 0.00 in
04:27 47.7 °F 46.0 °F 29.61 in NNW 5.0 mph 8.0 mph 95 % 0.00 in
04:42 47.6 °F 46.0 °F 29.61 in North 4.0 mph 9.0 mph 95 % 0.00 in
04:57 47.6 °F 46.0 °F 29.62 in NNW 3.0 mph 9.0 mph 95 % 0.00 in
05:12 47.6 °F 46.0 °F 29.64 in NNW 3.0 mph 11.0 mph 95 % 0.00 in
05:28 47.6 °F 46.0 °F 29.65 in NW 2.0 mph 11.0 mph 95 % 0.00 in
05:43 47.6 °F 46.0 °F 29.66 in NNW 2.0 mph 8.0 mph 95 % 0.00 in
05:57 47.5 °F 46.0 °F 29.65 in NNW 3.0 mph 9.0 mph 95 % 0.00 in
06:13 47.3 °F 46.0 °F 29.66 in NNW 3.0 mph 9.0 mph 95 % 0.00 in
06:28 47.3 °F 46.0 °F 29.68 in NNW 3.0 mph 9.0 mph 95 % 0.00 in
06:43 47.2 °F 46.0 °F 29.70 in Calm     94 % 0.00 in
06:58 47.0 °F 45.0 °F 29.71 in NNW 2.0 mph 3.0 mph 94 % 0.00 in
07:13 46.8 °F 45.0 °F 29.71 in NNW 1.0 mph 12.0 mph 94 % 0.00 in
07:28 46.9 °F 45.0 °F 29.71 in Calm   6.0 mph 94 % 0.00 in
07:43 46.8 °F 45.0 °F 29.73 in NNW 2.0 mph 8.0 mph 94 % 0.00 in
07:58 47.0 °F 45.0 °F 29.74 in West 3.0 mph 3.0 mph 94 % 0.00 in
08:13 47.2 °F 46.0 °F 29.75 in NNW 4.0 mph 8.0 mph 94 % 0.00 in
08:28 47.5 °F 46.0 °F 29.75 in NNE 2.0 mph 6.0 mph 93 % 0.00 in
08:43 47.8 °F 46.0 °F 29.75 in North 8.0 mph 11.0 mph 93 % 0.00 in
08:58 48.0 °F 46.0 °F 29.76 in NNE 2.0 mph 8.0 mph 92 % 0.00 in
09:13 48.3 °F 46.0 °F 29.77 in NNW 3.0 mph 8.0 mph 91 % 0.00 in
09:28 48.3 °F 46.0 °F 29.77 in NNW 6.0 mph 11.0 mph 90 % 0.00 in
09:43 48.6 °F 46.0 °F 29.77 in NE 4.0 mph 8.0 mph 90 % 0.00 in
09:58 49.4 °F 46.0 °F 29.76 in ENE 3.0 mph 11.0 mph 89 % 0.00 in
10:13 50.0 °F 46.0 °F 29.77 in NW 6.0 mph 12.0 mph 86 % 0.00 in
10:28 50.6 °F 46.0 °F 29.77 in NW 5.0 mph 13.0 mph 85 % 0.00 in
10:43 51.8 °F 46.0 °F 29.79 in WNW 8.0 mph 12.0 mph 81 % 0.00 in
10:59 52.7 °F 46.0 °F 29.80 in ENE 3.0 mph 14.0 mph 78 % 0.00 in
11:14 52.6 °F 46.0 °F 29.81 in North 8.0 mph 10.0 mph 78 % 0.00 in
11:29 52.7 °F 46.0 °F 29.81 in NW 4.0 mph 10.0 mph 77 % 0.00 in
11:44 52.9 °F 45.0 °F 29.82 in NNE 5.0 mph 12.0 mph 75 % 0.00 in
11:59 52.9 °F 45.0 °F 29.82 in NNE 9.0 mph 13.0 mph 74 % 0.00 in
12:14 53.1 °F 45.0 °F 29.82 in NW 3.0 mph 10.0 mph 74 % 0.00 in
12:29 52.9 °F 45.0 °F 29.83 in North 6.0 mph 11.0 mph 75 % 0.00 in
12:44 52.6 °F 45.0 °F 29.84 in North 4.0 mph 10.0 mph 75 % 0.00 in
12:59 52.6 °F 45.0 °F 29.83 in ENE 5.0 mph 9.0 mph 75 % 0.00 in
13:14 52.9 °F 45.0 °F 29.83 in NNE 1.0 mph 5.0 mph 74 % 0.00 in
13:29 52.9 °F 45.0 °F 29.83 in NNE 4.0 mph 9.0 mph 74 % 0.00 in
13:44 53.1 °F 45.0 °F 29.83 in ENE 2.0 mph 9.0 mph 74 % 0.00 in
13:59 53.5 °F 45.0 °F 29.82 in NE 5.0 mph 9.0 mph 73 % 0.00 in
14:14 53.9 °F 45.0 °F 29.82 in ENE 2.0 mph 9.0 mph 72 % 0.00 in
14:29 54.2 °F 45.0 °F 29.81 in NE 6.0 mph 8.0 mph 71 % 0.00 in
14:44 54.7 °F 45.0 °F 29.81 in ENE 5.0 mph 10.0 mph 69 % 0.00 in
14:59 55.3 °F 45.0 °F 29.81 in Calm   12.0 mph 68 % 0.00 in
15:14 55.7 °F 45.0 °F 29.81 in NNE 2.0 mph 8.0 mph 67 % 0.00 in
15:29 55.6 °F 45.0 °F 29.82 in Calm   9.0 mph 68 % 0.00 in
15:44 55.6 °F 45.0 °F 29.82 in East 1.0 mph 10.0 mph 67 % 0.00 in
15:59 55.8 °F 45.0 °F 29.83 in SE 3.0 mph 6.0 mph 68 % 0.00 in
16:15 55.4 °F 46.0 °F 29.83 in East 3.0 mph 6.0 mph 70 % 0.00 in
16:29 55.0 °F 46.0 °F 29.83 in Calm   7.0 mph 72 % 0.00 in
16:45 54.6 °F 46.0 °F 29.84 in Calm   6.0 mph 74 % 0.00 in
17:00 54.6 °F 46.0 °F 29.84 in ESE 2.0 mph 4.0 mph 74 % 0.00 in
17:15 54.3 °F 47.0 °F 29.84 in ENE 3.0 mph 8.0 mph 75 % 0.00 in
17:30 53.8 °F 46.0 °F 29.86 in NE 2.0 mph 10.0 mph 76 % 0.00 in
17:45 53.3 °F 46.0 °F 29.86 in East 3.0 mph 9.0 mph 76 % 0.00 in
18:00 53.0 °F 46.0 °F 29.86 in ESE 3.0 mph 8.0 mph 77 % 0.00 in
18:15 52.8 °F 46.0 °F 29.85 in ESE 2.0 mph 8.0 mph 77 % 0.00 in
18:30 52.9 °F 46.0 °F 29.84 in Calm   9.0 mph 77 % 0.00 in
18:45 52.8 °F 46.0 °F 29.84 in ENE 2.0 mph 12.0 mph 77 % 0.00 in
19:00 52.6 °F 46.0 °F 29.83 in SE 2.0 mph 9.0 mph 77 % 0.00 in
19:15 52.3 °F 45.0 °F 29.81 in NE 3.0 mph 10.0 mph 77 % 0.00 in
19:30 51.9 °F 45.0 °F 29.84 in East 2.0 mph 7.0 mph 78 % 0.00 in
19:45 51.6 °F 45.0 °F 29.84 in ENE 2.0 mph 8.0 mph 78 % 0.00 in
20:00 51.3 °F 45.0 °F 29.85 in East 3.0 mph 9.0 mph 79 % 0.00 in
20:15 51.1 °F 45.0 °F 29.85 in East 2.0 mph 7.0 mph 80 % 0.00 in
20:30 50.7 °F 45.0 °F 29.85 in Calm   8.0 mph 80 % 0.00 in
20:45 50.4 °F 45.0 °F 29.85 in Calm   4.0 mph 81 % 0.00 in
21:00 50.1 °F 45.0 °F 29.84 in ENE 2.0 mph 6.0 mph 82 % 0.00 in
21:15 49.9 °F 45.0 °F 29.84 in ENE 3.0 mph 6.0 mph 83 % 0.00 in
21:30 49.6 °F 45.0 °F 29.84 in Calm   4.0 mph 83 % 0.00 in
21:45 49.4 °F 44.0 °F 29.85 in Calm   6.0 mph 83 % 0.00 in
22:00 49.4 °F 44.0 °F 29.86 in Calm   6.0 mph 83 % 0.00 in
22:15 49.4 °F 44.0 °F 29.88 in Calm   4.0 mph 83 % 0.00 in
22:30 49.4 °F 44.0 °F 29.89 in Calm   3.0 mph 83 % 0.00 in
22:45 49.4 °F 44.0 °F 29.88 in Calm   4.0 mph 82 % 0.00 in
23:00 49.3 °F 44.0 °F 29.87 in Calm   6.0 mph 82 % 0.00 in
23:15 49.2 °F 44.0 °F 29.87 in Calm   6.0 mph 83 % 0.00 in
23:30 49.1 °F 44.0 °F 29.86 in Calm   8.0 mph 83 % 0.01 in
23:45 48.9 °F 44.0 °F 29.85 in Calm   5.0 mph 83 % 0.01 in
Des Moines Weather and Climate
Compliments of Weather Underground - 3 mb

Script developed by  Jim McMurry - jmcmurry@mwt.net Adapted for the template by  Wim van der Kuil - Leuven-Template.eu

You find our weather info also at:

Weather Underground

Equipment we use:

Weather-station
Davis VP2 Plus

Weather-program
Davis Weatherlink.Com

Weather-server
iMac (Retina 4K, 21.5-inch, Late 2015)

Provider
Hostmonster.com

Davis VP2 Plus

Davis Weatherlink.Com

iMac (Retina 4K, 21.5-inch, Late 2015)

Hostmonster.com